Time;durP1;ratioP1;P1;durP2;ratioP2;P2;SDS_P1;SDS_P2;PMS_P1;PMS_P2;Temp;Humidity;BMP_temperature;BMP_pressure;BME280_temperature;BME280_humidity;BME280_pressure;Samples;Min_cycle;Max_cycle;Signal;HPM_P1;HPM_P2
2021/12/19 00:09:24;;;;;;;15.13;10.15;;;;;;;6.66;100.00;104430.38;10494351;28;20047;-59
2021/12/19 00:14:26;;;;;;;16.73;9.57;;;;;;;6.53;100.00;104430.16;10545387;28;20066;-59
2021/12/19 00:19:28;;;;;;;15.07;9.85;;;;;;;6.58;100.00;104415.47;10545449;28;20051;-59
2021/12/19 00:24:31;;;;;;;16.05;10.18;;;;;;;6.53;100.00;104419.72;10544892;28;20059;-59
2021/12/19 00:29:33;;;;;;;17.77;10.95;;;;;;;6.47;100.00;104407.47;10544656;28;20048;-60
2021/12/19 00:34:35;;;;;;;19.33;11.95;;;;;;;6.20;100.00;104392.22;10544694;28;20048;-61
2021/12/19 00:39:38;;;;;;;19.00;12.45;;;;;;;6.43;100.00;104396.13;10544463;28;20055;-59
2021/12/19 00:44:42;;;;;;;19.38;11.55;;;;;;;6.38;100.00;104395.16;10544622;28;20048;-59
2021/12/19 00:49:44;;;;;;;22.20;12.00;;;;;;;6.41;100.00;104420.38;10543924;28;20056;-59
2021/12/19 00:54:47;;;;;;;24.15;15.45;;;;;;;6.23;100.00;104450.41;10544307;28;20047;-58
2021/12/19 00:59:49;;;;;;;22.50;12.77;;;;;;;6.27;100.00;104434.03;10543542;28;20048;-59
2021/12/19 01:04:51;;;;;;;29.02;15.93;;;;;;;6.20;100.00;104424.31;10543619;28;20048;-59
2021/12/19 01:09:53;;;;;;;32.22;15.90;;;;;;;5.84;100.00;104395.84;10543527;28;20067;-59
2021/12/19 01:14:56;;;;;;;23.70;13.43;;;;;;;5.97;100.00;104403.09;10542573;28;20067;-58
2021/12/19 01:19:58;;;;;;;33.05;14.48;;;;;;;5.96;100.00;104398.72;10542953;28;20048;-59
2021/12/19 01:25:01;;;;;;;39.22;16.38;;;;;;;5.80;100.00;104386.22;10542556;28;20044;-59
2021/12/19 01:30:06;;;;;;;34.97;15.73;;;;;;;5.93;100.00;104398.63;10541071;28;20052;-59
2021/12/19 01:35:10;;;;;;;41.28;15.27;;;;;;;5.89;100.00;104408.09;10542810;28;20056;-58
2021/12/19 01:40:15;;;;;;;37.78;13.98;;;;;;;5.88;100.00;104397.66;10542131;28;20060;-58
2021/12/19 01:45:29;;;;;;;28.17;12.00;;;;;;;6.00;100.00;104410.97;10541762;28;20047;-59
2021/12/19 01:50:33;;;;;;;30.50;12.80;;;;;;;5.84;100.00;104391.53;10541388;28;20059;-60
2021/12/19 01:55:36;;;;;;;35.22;12.85;;;;;;;5.80;100.00;104384.50;10541606;28;20054;-59
2021/12/19 02:00:49;;;;;;;36.85;13.75;;;;;;;5.77;100.00;104377.50;10541174;28;20055;-59
2021/12/19 02:05:52;;;;;;;38.38;14.95;;;;;;;5.97;100.00;104386.56;10541439;28;20438;-59
2021/12/19 02:10:54;;;;;;;39.50;16.05;;;;;;;5.84;100.00;104373.31;10540794;28;20058;-59
2021/12/19 02:15:57;;;;;;;52.15;15.75;;;;;;;5.86;100.00;104371.59;10540784;28;20044;-59
2021/12/19 02:21:00;;;;;;;43.63;15.00;;;;;;;5.76;100.00;104360.16;10540370;28;20052;-60
2021/12/19 02:26:03;;;;;;;42.15;15.75;;;;;;;5.68;100.00;104356.53;10540384;28;20055;-60
2021/12/19 02:31:05;;;;;;;45.45;16.17;;;;;;;5.73;100.00;104339.31;10540190;28;20055;-60
2021/12/19 02:51:45;;;;;;;33.25;14.80;;;;;;;5.72;100.00;104329.75;10539636;28;20052;-59
2021/12/19 02:56:48;;;;;;;43.65;18.10;;;;;;;5.58;100.00;104323.38;10539514;28;20048;-58
2021/12/19 03:01:50;;;;;;;48.95;17.73;;;;;;;5.57;100.00;104314.72;10539785;28;20073;-59
2021/12/19 03:06:53;;;;;;;48.47;16.20;;;;;;;5.68;100.00;104311.44;10539380;28;20048;-60
2021/12/19 03:22:18;;;;;;;45.78;17.73;;;;;;;5.72;100.00;104305.47;10539715;28;20051;-60
2021/12/19 03:27:20;;;;;;;38.70;13.32;;;;;;;5.68;100.00;104303.66;10539111;28;20044;-59
2021/12/19 03:32:25;;;;;;;30.70;11.80;;;;;;;5.77;100.00;104306.44;10539206;28;20060;-59
2021/12/19 03:37:27;;;;;;;33.55;13.32;;;;;;;5.82;100.00;104314.34;10541431;28;20388;-59
2021/12/19 03:42:30;;;;;;;34.47;15.38;;;;;;;5.75;100.00;104283.00;10546491;28;20503;-58
2021/12/19 03:47:32;;;;;;;37.63;15.18;;;;;;;5.76;100.00;104276.06;10546889;28;20063;-58
2021/12/19 03:52:35;;;;;;;45.08;16.77;;;;;;;5.76;100.00;104287.34;10545129;28;20058;-59
2021/12/19 03:57:37;;;;;;;43.53;17.73;;;;;;;5.74;100.00;104269.97;10545882;28;20499;-61
2021/12/19 04:02:39;;;;;;;44.72;16.42;;;;;;;5.88;100.00;104258.06;10545763;28;20044;-60
2021/12/19 04:07:42;;;;;;;28.42;12.95;;;;;;;5.72;100.00;104253.47;10546218;28;20040;-58
2021/12/19 04:12:44;;;;;;;38.88;14.65;;;;;;;5.64;100.00;104222.13;10545281;28;20044;-60
2021/12/19 04:17:46;;;;;;;36.90;13.88;;;;;;;5.59;100.00;104219.44;10545828;28;20044;-59
2021/12/19 04:22:51;;;;;;;33.28;13.88;;;;;;;5.53;100.00;104197.66;10544676;28;20055;-59
2021/12/19 04:27:53;;;;;;;31.92;12.57;;;;;;;5.67;100.00;104203.13;10545222;28;20048;-60
2021/12/19 04:33:00;;;;;;;27.17;12.10;;;;;;;5.67;100.00;104193.59;10544032;28;20069;-59
2021/12/19 05:15:33;;;;;;;23.77;9.27;;;;;;;5.53;100.00;104171.66;10543274;28;20051;-58
2021/12/19 05:20:39;;;;;;;23.25;7.80;;;;;;;5.51;100.00;104181.16;10542641;28;20048;-59
2021/12/19 05:25:41;;;;;;;20.63;8.52;;;;;;;5.55;100.00;104152.66;10542299;28;20057;-60
2021/12/19 05:30:43;;;;;;;20.35;8.68;;;;;;;5.61;100.00;104275.78;10542414;28;20052;-61
2021/12/19 05:46:21;;;;;;;16.30;6.90;;;;;;;5.64;100.00;104162.31;10542145;28;20044;-61
2021/12/19 05:51:23;;;;;;;16.00;7.15;;;;;;;5.73;100.00;104166.81;10541579;28;20079;-60
2021/12/19 05:56:25;;;;;;;18.10;7.72;;;;;;;5.64;100.00;104144.13;10541647;28;20040;-59
2021/12/19 06:01:28;;;;;;;17.25;7.22;;;;;;;5.66;100.00;104157.16;10540237;28;20058;-59
2021/12/19 06:06:30;;;;;;;19.02;7.88;;;;;;;5.71;100.00;104158.97;10541525;28;20048;-59
2021/12/19 06:11:33;;;;;;;21.25;8.38;;;;;;;5.71;100.00;104168.50;10541130;28;20056;-60
2021/12/19 06:16:36;;;;;;;25.92;9.13;;;;;;;5.72;100.00;104159.88;10540669;28;20052;-59
2021/12/19 06:21:38;;;;;;;22.52;7.90;;;;;;;5.54;100.00;104122.28;10540738;28;20058;-59
2021/12/19 06:26:40;;;;;;;17.17;6.55;;;;;;;5.69;100.00;104128.63;10540586;28;20048;-59
2021/12/19 06:31:43;;;;;;;15.77;6.72;;;;;;;5.80;100.00;104134.88;10540303;28;20048;-59
2021/12/19 06:36:45;;;;;;;13.45;6.57;;;;;;;5.93;100.00;104135.91;10539064;28;20048;-59
2021/12/19 06:41:47;;;;;;;17.35;6.70;;;;;;;5.81;100.00;104138.34;10539663;28;20507;-59
2021/12/19 06:46:50;;;;;;;13.23;6.78;;;;;;;5.90;100.00;104134.16;10540218;28;20055;-60
2021/12/19 06:51:53;;;;;;;14.25;5.57;;;;;;;5.92;100.00;104123.78;10539772;28;20048;-59
2021/12/19 06:56:55;;;;;;;13.38;5.22;;;;;;;5.95;100.00;104131.63;10540115;28;20041;-60
2021/12/19 07:01:57;;;;;;;15.15;5.55;;;;;;;5.97;100.00;104122.16;10539452;28;20044;-60
2021/12/19 07:07:00;;;;;;;14.18;6.65;;;;;;;6.03;100.00;104123.97;10539568;28;20044;-59
2021/12/19 07:12:02;;;;;;;18.33;6.47;;;;;;;6.23;100.00;104132.94;10542913;28;20044;-60
2021/12/19 07:17:05;;;;;;;17.88;5.97;;;;;;;6.26;100.00;104135.59;10547816;28;20118;-59
2021/12/19 07:22:07;;;;;;;15.02;5.95;;;;;;;6.19;100.00;104123.34;10547284;28;20040;-59
2021/12/19 07:27:09;;;;;;;12.85;5.25;;;;;;;6.14;100.00;104123.28;10547605;28;20049;-60
2021/12/19 07:32:12;;;;;;;12.40;5.68;;;;;;;6.13;100.00;104118.91;10546813;28;20400;-60
2021/12/19 07:37:14;;;;;;;11.75;4.78;;;;;;;5.99;100.00;104109.19;10547559;28;20040;-60
2021/12/19 07:42:16;;;;;;;10.60;4.47;;;;;;;6.05;100.00;104101.44;10546427;28;20048;-60
2021/12/19 07:47:19;;;;;;;8.50;3.58;;;;;;;6.10;100.00;104102.38;10546899;28;20051;-62
2021/12/19 07:52:21;;;;;;;3.72;2.10;;;;;;;6.03;100.00;104093.63;10546142;28;20044;-59
2021/12/19 07:57:24;;;;;;;6.03;1.80;;;;;;;6.08;100.00;104099.75;10546021;28;20431;-60
2021/12/19 08:02:27;;;;;;;5.47;2.70;;;;;;;6.07;100.00;104098.03;10545898;28;20048;-60
2021/12/19 08:07:30;;;;;;;2.15;1.45;;;;;;;6.12;100.00;104098.97;10544553;28;20048;-60
2021/12/19 08:12:32;;;;;;;5.57;1.80;;;;;;;6.10;100.00;104105.88;10545490;28;20415;-59
2021/12/19 08:17:35;;;;;;;4.30;2.65;;;;;;;6.26;100.00;104098.28;10544207;28;20085;-59
2021/12/19 08:22:38;;;;;;;6.57;2.53;;;;;;;5.92;100.00;104082.19;10543463;28;20048;-61
2021/12/19 08:27:40;;;;;;;3.85;1.90;;;;;;;6.00;100.00;104080.59;10543947;28;20044;-61
2021/12/19 08:32:43;;;;;;;2.97;1.83;;;;;;;6.10;100.00;104085.06;10545183;28;20063;-60
2021/12/19 08:37:45;;;;;;;3.53;2.00;;;;;;;6.01;100.00;104078.88;10544994;28;20105;-60
2021/12/19 08:42:48;;;;;;;2.70;1.48;;;;;;;6.36;100.00;104089.75;10543102;28;20478;-62
2021/12/19 08:47:50;;;;;;;6.03;1.83;;;;;;;6.31;100.00;104092.28;10544165;28;20051;-59
2021/12/19 08:52:53;;;;;;;4.90;2.42;;;;;;;6.47;100.00;104079.47;10543866;28;20500;-61
2021/12/19 08:57:55;;;;;;;3.45;1.77;;;;;;;6.44;100.00;104084.63;10543597;28;20048;-60
2021/12/19 09:02:58;;;;;;;1.88;1.30;;;;;;;6.26;100.00;104078.34;10543341;28;20051;-59
2021/12/19 09:08:01;;;;;;;2.55;1.58;;;;;;;6.47;100.00;104082.97;10544119;28;20058;-59
2021/12/19 09:13:03;;;;;;;3.30;1.60;;;;;;;6.40;100.00;104080.25;10542930;28;20380;-61
2021/12/19 09:18:05;;;;;;;1.45;1.35;;;;;;;6.66;100.00;104067.56;10543512;28;20055;-60
2021/12/19 09:23:08;;;;;;;2.47;1.30;;;;;;;6.36;100.00;104060.25;10542831;28;20055;-60
2021/12/19 09:28:10;;;;;;;2.38;1.08;;;;;;;6.25;100.00;104073.97;10542580;28;20051;-61
2021/12/19 09:33:13;;;;;;;2.15;1.27;;;;;;;6.17;100.00;104075.63;10542036;28;20058;-60
2021/12/19 09:38:18;;;;;;;3.28;1.55;;;;;;;6.38;100.00;104074.16;10535759;28;20044;-59
2021/12/19 09:43:44;;;;;;;3.17;1.30;;;;;;;6.73;100.00;104254.25;10530301;28;20074;-62
2021/12/19 09:48:48;;;;;;;1.65;1.33;;;;;;;6.75;100.00;104148.38;10497728;28;20489;-59
2021/12/19 09:53:51;;;;;;;2.45;1.90;;;;;;;6.62;100.00;104120.44;10497899;28;20049;-61
2021/12/19 09:58:54;;;;;;;3.95;1.50;;;;;;;6.57;100.00;104080.44;10497577;28;20040;-61
2021/12/19 10:03:56;;;;;;;2.33;1.60;;;;;;;6.66;100.00;104089.25;10497930;28;20044;-59
2021/12/19 10:09:11;;;;;;;2.20;1.17;;;;;;;6.59;100.00;104063.09;10497377;28;20515;-61
2021/12/19 10:14:46;;;;;;;5.22;1.88;;;;;;;6.65;100.00;104053.63;10496248;28;20504;-60
2021/12/19 10:19:54;;;;;;;1.40;1.30;;;;;;;6.81;100.00;104062.50;10465253;28;20041;-59
2021/12/19 10:25:21;;;;;;;2.75;1.42;;;;;;;6.60;100.00;104028.41;10496851;28;20044;-62
2021/12/19 10:30:25;;;;;;;2.88;1.67;;;;;;;6.57;100.00;104033.59;10496803;28;20057;-61
2021/12/19 10:35:32;;;;;;;7.43;2.15;;;;;;;6.65;100.00;104018.94;10496624;28;20049;-59
2021/12/19 10:40:35;;;;;;;4.03;2.60;;;;;;;6.76;100.00;103998.19;10496601;28;20052;-59
2021/12/19 10:45:55;;;;;;;5.65;3.72;;;;;;;6.56;100.00;103979.78;10495823;28;20404;-60
2021/12/19 10:51:08;;;;;;;12.65;5.22;;;;;;;6.63;100.00;103982.47;10503497;28;20484;-60
2021/12/19 10:56:14;;;;;;;13.07;5.78;;;;;;;6.85;100.00;103977.47;10537452;28;20051;-60
2021/12/19 11:01:25;;;;;;;9.35;4.82;;;;;;;6.73;100.00;103956.53;10534863;28;20040;-61
2021/12/19 11:06:32;;;;;;;;;;;;;;;6.67;100.00;103957.31;10539894;28;20052;-62
2021/12/19 11:11:41;;;;;;;8.32;5.28;;;;;;;6.74;100.00;103946.13;10539440;28;19924;-61
2021/12/19 11:16:45;;;;;;;8.05;4.90;;;;;;;6.80;100.00;103950.50;10539925;28;20069;-61
2021/12/19 11:21:47;;;;;;;7.75;4.30;;;;;;;6.79;100.00;103953.97;10538293;28;20040;-60
2021/12/19 11:26:55;;;;;;;10.75;4.10;;;;;;;6.75;100.00;103949.59;10539131;28;20058;-61
2021/12/19 11:32:01;;;;;;;7.05;4.07;;;;;;;6.98;100.00;103963.69;10537737;28;20500;-60
2021/12/19 11:37:06;;;;;;;7.68;3.25;;;;;;;6.65;100.00;103933.00;10538802;28;20054;-62
2021/12/19 11:42:14;;;;;;;9.27;4.57;;;;;;;6.88;100.00;103949.72;10538834;28;20052;-62
2021/12/19 11:47:53;;;;;;;8.05;5.18;;;;;;;7.01;100.00;103945.47;10539480;28;20051;-61
2021/12/19 11:53:09;;;;;;;14.50;5.55;;;;;;;6.61;100.00;103906.06;10531350;28;20109;-62
2021/12/19 11:58:29;;;;;;;8.80;4.60;;;;;;;7.02;100.00;103922.91;10540480;28;20044;-60
2021/12/19 12:03:54;;;;;;;9.02;3.92;;;;;;;6.74;100.00;103909.66;10545827;28;20055;-61
2021/12/19 12:09:03;;;;;;;10.50;5.30;;;;;;;6.69;100.00;103906.13;10546428;28;20089;-61
2021/12/19 12:14:23;;;;;;;13.98;6.00;;;;;;;6.66;100.00;103888.75;10546054;28;20044;-60
2021/12/19 12:19:48;;;;;;;17.33;5.53;;;;;;;6.69;100.00;103882.69;10545675;28;20048;-60
2021/12/19 12:25:09;;;;;;;12.80;5.47;;;;;;;6.92;100.00;103905.44;10544010;28;20055;-64
2021/12/19 12:30:16;;;;;;;14.45;6.72;;;;;;;6.82;100.00;103888.88;10544819;28;20062;-61
2021/12/19 12:35:19;;;;;;;10.27;5.55;;;;;;;6.76;100.00;103871.47;10545107;28;20400;-60
2021/12/19 12:45:46;;;;;;;14.38;6.53;;;;;;;6.62;100.00;103863.56;10544404;28;20048;-62
2021/12/19 12:50:51;;;;;;;10.82;5.82;;;;;;;6.94;100.00;103867.25;10544061;28;20443;-60
2021/12/19 12:56:15;;;;;;;14.93;5.57;;;;;;;6.82;100.00;103865.44;10544041;28;20055;-60
2021/12/19 13:01:24;;;;;;;14.50;7.35;;;;;;;6.79;100.00;103836.75;10543462;28;20511;-60
2021/12/19 13:06:50;;;;;;;12.00;6.22;;;;;;;6.66;100.00;103822.81;10543736;28;20044;-61
2021/12/19 13:12:12;;;;;;;9.52;4.53;;;;;;;6.88;100.00;103824.69;10542928;28;20055;-62
2021/12/19 13:17:19;;;;;;;14.02;7.20;;;;;;;6.97;100.00;103820.41;10543291;28;20048;-59
2021/12/19 13:22:24;;;;;;;6.90;4.28;;;;;;;6.70;100.00;103828.03;10542731;28;20105;-61
2021/12/19 13:27:32;;;;;;;8.85;5.00;;;;;;;6.62;100.00;103813.22;10542642;28;20122;-62
2021/12/19 13:32:35;;;;;;;7.60;3.90;;;;;;;6.70;100.00;103803.72;10542704;28;20074;-60
2021/12/19 13:37:47;;;;;;;10.75;3.78;;;;;;;6.88;100.00;103813.41;10542197;28;20052;-60
2021/12/19 13:43:10;;;;;;;7.07;5.05;;;;;;;6.80;100.00;103809.88;10540806;28;20044;-61
2021/12/19 13:48:20;;;;;;;5.45;3.25;;;;;;;6.76;100.00;103808.97;10542094;28;20040;-61
2021/12/19 13:53:25;;;;;;;6.80;3.70;;;;;;;6.86;100.00;103807.31;10542473;28;20519;-60
2021/12/19 13:58:31;;;;;;;11.50;5.28;;;;;;;6.69;100.00;103787.25;10541668;28;20048;-59
2021/12/19 14:03:42;;;;;;;7.18;4.60;;;;;;;6.91;100.00;103803.00;10540986;28;20052;-60
2021/12/19 14:08:52;;;;;;;10.15;4.43;;;;;;;6.74;100.00;103784.66;10541339;28;20044;-60
2021/12/19 14:14:01;;;;;;;10.05;4.22;;;;;;;6.72;100.00;103786.38;10540717;28;20056;-59
2021/12/19 14:19:20;;;;;;;9.85;4.47;;;;;;;6.68;100.00;103792.44;10541295;28;20052;-60
2021/12/19 14:24:28;;;;;;;9.20;5.05;;;;;;;6.65;100.00;103774.19;10539914;28;20040;-61
2021/12/19 14:29:30;;;;;;;11.02;4.28;;;;;;;6.67;100.00;103769.84;10540916;28;20070;-60
2021/12/19 14:34:43;;;;;;;10.20;6.18;;;;;;;6.68;100.00;103763.78;10541257;28;20044;-60
2021/12/19 14:40:08;;;;;;;9.38;6.03;;;;;;;6.80;100.00;103756.03;10539535;28;20044;-61
2021/12/19 14:45:18;;;;;;;8.32;5.40;;;;;;;6.58;100.00;103743.78;10540132;28;20070;-60
2021/12/19 14:50:24;;;;;;;6.80;4.05;;;;;;;6.61;100.00;103741.19;10540088;28;20056;-59
2021/12/19 14:55:29;;;;;;;6.22;4.40;;;;;;;6.49;100.00;103836.53;10538592;28;20488;-62
2021/12/19 15:00:33;;;;;;;8.65;4.50;;;;;;;6.42;100.00;103755.78;10539673;28;20051;-59
2021/12/19 15:05:38;;;;;;;7.70;5.03;;;;;;;6.41;100.00;103778.34;10539456;28;20408;-60
2021/12/19 15:10:40;;;;;;;8.02;4.47;;;;;;;6.48;100.00;103759.31;10539401;28;20055;-62
2021/12/19 15:15:44;;;;;;;9.98;5.15;;;;;;;6.53;100.00;103750.69;10538430;28;20048;-59
2021/12/19 15:20:49;;;;;;;8.23;5.88;;;;;;;6.42;100.00;103745.38;10539058;28;20511;-59
2021/12/19 15:25:53;;;;;;;13.68;6.10;;;;;;;6.24;100.00;103733.13;10539563;28;20058;-60
2021/12/19 15:30:57;;;;;;;8.45;5.13;;;;;;;6.57;100.00;103749.81;10537864;28;20055;-60
2021/12/19 15:35:59;;;;;;;11.30;5.05;;;;;;;6.54;100.00;103748.09;10546984;28;20043;-59
2021/12/19 15:41:02;;;;;;;12.68;6.68;;;;;;;6.49;100.00;103731.56;10547061;28;20055;-60
2021/12/19 15:46:05;;;;;;;17.35;6.43;;;;;;;6.44;100.00;103728.03;10546840;28;20459;-60
2021/12/19 15:51:08;;;;;;;11.45;6.63;;;;;;;6.32;100.00;103721.91;10546828;28;20063;-60
2021/12/19 15:56:10;;;;;;;9.25;5.47;;;;;;;6.26;100.00;103726.19;10546414;28;20054;-59
2021/12/19 16:01:13;;;;;;;7.00;4.28;;;;;;;6.40;100.00;103711.53;10546036;28;20051;-60
2021/12/19 16:06:16;;;;;;;5.53;3.25;;;;;;;6.59;100.00;103714.25;10545995;28;20059;-61
2021/12/19 16:11:18;;;;;;;12.90;5.07;;;;;;;6.57;100.00;103703.81;10545673;28;20483;-60
2021/12/19 16:16:20;;;;;;;12.45;4.75;;;;;;;6.62;100.00;103707.34;10545560;28;20385;-60
2021/12/19 16:21:23;;;;;;;9.63;4.53;;;;;;;6.67;100.00;103705.66;10546088;28;20048;-59
2021/12/19 16:26:27;;;;;;;10.93;4.60;;;;;;;6.46;100.00;103693.34;10545334;28;20048;-60
2021/12/19 16:31:32;;;;;;;13.45;6.57;;;;;;;6.66;100.00;103700.44;10545493;28;20059;-60
2021/12/19 16:36:36;;;;;;;18.55;6.93;;;;;;;6.41;100.00;103676.00;10544704;28;20056;-61
2021/12/19 16:41:45;;;;;;;13.90;6.78;;;;;;;6.33;100.00;103679.38;10544356;28;20048;-61
2021/12/19 16:46:50;;;;;;;11.27;7.07;;;;;;;6.50;100.00;103666.47;10542895;28;20055;-60
2021/12/19 16:51:52;;;;;;;14.85;5.78;;;;;;;6.50;100.00;103674.28;10544637;28;20060;-60
2021/12/19 16:56:55;;;;;;;10.10;5.25;;;;;;;6.62;100.00;103688.25;10544261;28;20073;-61
2021/12/19 17:01:57;;;;;;;15.57;5.20;;;;;;;6.50;100.00;103689.91;10542339;28;20442;-60
2021/12/19 17:06:59;;;;;;;14.35;6.95;;;;;;;6.54;100.00;103684.72;10543736;28;20412;-60
2021/12/19 17:12:09;;;;;;;16.38;6.45;;;;;;;6.46;100.00;103680.34;10543649;28;20534;-60
2021/12/19 17:17:13;;;;;;;17.58;5.25;;;;;;;6.46;100.00;103687.28;10543770;28;20052;-60
2021/12/19 17:22:15;;;;;;;11.70;5.60;;;;;;;6.63;100.00;103674.38;10542709;28;20500;-60
2021/12/19 17:27:17;;;;;;;12.45;5.50;;;;;;;6.47;100.00;103676.00;10542766;28;20044;-60
2021/12/19 17:32:20;;;;;;;17.00;5.53;;;;;;;6.42;100.00;103660.38;10542346;28;20399;-60
2021/12/19 17:37:23;;;;;;;14.63;5.35;;;;;;;6.42;100.00;103639.56;10541416;28;20087;-60
2021/12/19 17:42:25;;;;;;;11.20;5.28;;;;;;;6.36;100.00;103633.44;10542053;28;20055;-59
2021/12/19 17:47:28;;;;;;;17.60;6.43;;;;;;;6.41;100.00;103643.00;10542065;28;20055;-60
2021/12/19 17:52:31;;;;;;;11.98;5.50;;;;;;;6.55;100.00;103650.88;10540776;28;20450;-62
2021/12/19 17:57:33;;;;;;;16.08;6.93;;;;;;;6.39;100.00;103638.66;10540399;28;20051;-61
2021/12/19 18:02:37;;;;;;;13.48;5.40;;;;;;;6.18;100.00;103627.25;10541047;28;20411;-61
2021/12/19 18:07:40;;;;;;;16.05;9.27;;;;;;;6.43;100.00;103643.88;10539907;28;20503;-61
2021/12/19 18:12:42;;;;;;;15.57;8.02;;;;;;;6.50;100.00;103663.00;10540831;28;20044;-61
2021/12/19 18:17:46;;;;;;;26.50;12.05;;;;;;;6.53;100.00;103643.94;10541433;28;20052;-61
2021/12/19 18:22:53;;;;;;;20.50;9.65;;;;;;;6.46;100.00;103640.44;10540584;28;20381;-61
2021/12/19 18:27:56;;;;;;;20.02;9.85;;;;;;;6.27;100.00;103626.44;10540600;28;20058;-61
2021/12/19 18:32:59;;;;;;;25.67;11.43;;;;;;;6.23;100.00;103627.28;10538956;28;20398;-62
2021/12/19 18:38:03;;;;;;;20.38;9.65;;;;;;;6.47;100.00;103640.47;10540371;28;20099;-61
2021/12/19 18:43:18;;;;;;;27.65;12.02;;;;;;;6.28;100.00;103628.19;10539887;28;20048;-61
2021/12/19 18:59:08;;;;;;;17.95;9.35;;;;;;;6.59;100.00;103634.44;10539825;28;20047;-61
2021/12/19 19:04:24;;;;;;;23.67;11.18;;;;;;;6.40;100.00;103636.06;10540153;28;20040;-61
2021/12/19 19:09:30;;;;;;;19.73;9.63;;;;;;;6.53;100.00;103628.34;10545466;28;20476;-62
2021/12/19 19:14:33;;;;;;;21.77;9.77;;;;;;;6.38;100.00;103629.97;10547387;28;20051;-62
2021/12/19 19:19:38;;;;;;;20.30;8.80;;;;;;;6.73;100.00;103655.31;10548084;28;20048;-61
2021/12/19 19:24:41;;;;;;;17.52;8.25;;;;;;;6.34;100.00;103646.44;10547909;28;20051;-62
2021/12/19 19:29:43;;;;;;;18.80;7.93;;;;;;;6.47;100.00;103632.66;10547826;28;20419;-62
2021/12/19 19:34:46;;;;;;;22.05;6.63;;;;;;;6.35;100.00;103629.09;10547115;28;20058;-61
2021/12/19 19:40:55;;;;;;;18.60;8.02;;;;;;;6.29;100.00;103620.41;10547623;28;20048;-60
2021/12/19 19:50:42;;;;;;;17.65;6.75;;;;;;;6.21;100.00;103610.81;10534796;28;20056;-62
2021/12/19 19:55:46;;;;;;;19.88;7.60;;;;;;;6.43;100.00;103630.00;10546767;28;20134;-61
2021/12/19 20:00:48;;;;;;;22.08;7.28;;;;;;;6.55;100.00;103629.19;10546261;28;20048;-62
2021/12/19 20:05:51;;;;;;;16.13;6.63;;;;;;;6.33;100.00;103622.13;10546212;28;20040;-61
2021/12/19 20:10:54;;;;;;;14.60;5.88;;;;;;;6.74;100.00;103638.84;10546273;28;20052;-61
2021/12/19 20:15:56;;;;;;;21.35;6.72;;;;;;;6.30;100.00;103622.16;10545768;28;20044;-61
2021/12/19 20:21:00;;;;;;;18.35;8.07;;;;;;;6.27;100.00;103621.22;10544578;28;20550;-63
2021/12/19 20:26:02;;;;;;;13.27;5.80;;;;;;;6.25;100.00;103618.63;10527283;28;20385;-62
2021/12/19 20:31:08;;;;;;;18.23;5.35;;;;;;;6.47;100.00;103640.47;10545710;28;20056;-63
2021/12/19 20:36:11;;;;;;;9.82;5.38;;;;;;;6.62;100.00;103639.66;10544829;28;20048;-61
2021/12/19 20:41:14;;;;;;;11.27;5.57;;;;;;;6.47;100.00;103642.16;10543421;28;20040;-61
2021/12/19 20:46:16;;;;;;;24.52;11.13;;;;;;;6.36;100.00;103623.91;10543250;28;20055;-63
2021/12/19 20:51:19;;;;;;;26.13;11.18;;;;;;;6.27;100.00;103621.22;10544343;28;20079;-64
2021/12/19 20:56:21;;;;;;;11.70;6.15;;;;;;;6.22;100.00;103618.63;10544154;28;20048;-63
2021/12/19 21:01:24;;;;;;;16.17;7.47;;;;;;;6.35;100.00;103616.94;10544138;28;20048;-61
2021/12/19 21:06:31;;;;;;;12.52;4.97;;;;;;;6.07;100.00;103608.09;10543102;28;20044;-61
2021/12/19 21:11:37;;;;;;;17.25;6.80;;;;;;;6.09;100.00;103612.47;10543828;28;20048;-63
2021/12/19 21:22:04;;;;;;;14.55;6.00;;;;;;;6.19;100.00;103621.22;10543173;28;20040;-64
2021/12/19 21:27:09;;;;;;;11.98;5.38;;;;;;;6.20;100.00;103612.53;10541975;28;20480;-62
2021/12/19 21:32:11;;;;;;;11.50;3.60;;;;;;;6.19;100.00;103616.00;10542604;28;20480;-60
2021/12/19 21:42:38;;;;;;;8.98;3.97;;;;;;;6.33;100.00;103632.56;10543015;28;20055;-60
2021/12/19 21:47:41;;;;;;;9.45;4.97;;;;;;;6.14;100.00;103583.88;10541986;28;20044;-61
2021/12/19 21:52:44;;;;;;;13.65;4.95;;;;;;;6.32;100.00;103615.22;10541436;28;20079;-60
2021/12/19 21:57:46;;;;;;;8.77;4.57;;;;;;;6.43;100.00;103612.66;10541838;28;20127;-61
2021/12/19 22:02:49;;;;;;;13.63;6.60;;;;;;;6.29;100.00;103620.41;10541337;28;20044;-62
2021/12/19 22:07:53;;;;;;;12.00;4.28;;;;;;;6.30;100.00;103616.06;10541225;28;20480;-61
2021/12/19 22:13:03;;;;;;;17.55;6.00;;;;;;;6.27;100.00;103595.22;10540830;28;20059;-62
2021/12/19 22:18:10;;;;;;;11.93;5.20;;;;;;;6.18;100.00;103613.38;10541074;28;20487;-62
2021/12/19 22:23:12;;;;;;;15.25;5.20;;;;;;;6.32;100.00;103611.72;10540309;28;20082;-61
2021/12/19 22:28:15;;;;;;;12.77;5.15;;;;;;;6.21;100.00;103610.81;10541057;28;20051;-61
2021/12/19 22:33:17;;;;;;;11.57;4.47;;;;;;;5.98;100.00;103582.03;10539080;28;20052;-61
2021/12/19 22:38:20;;;;;;;19.00;5.82;;;;;;;6.17;100.00;103601.22;10540815;28;20051;-60
2021/12/19 22:43:24;;;;;;;17.92;5.68;;;;;;;6.27;100.00;103611.72;10539400;28;20043;-61
2021/12/19 22:48:27;;;;;;;12.88;5.32;;;;;;;6.07;100.00;103576.88;10540040;28;20048;-61
2021/12/19 22:53:29;;;;;;;15.68;5.15;;;;;;;6.22;100.00;103596.91;10539976;28;20048;-61
2021/12/19 22:58:32;;;;;;;20.40;5.78;;;;;;;6.27;100.00;103593.50;10539391;28;20044;-62
2021/12/19 23:03:35;;;;;;;8.98;3.22;;;;;;;6.37;100.00;103601.34;10539547;28;20051;-61
2021/12/19 23:08:39;;;;;;;11.52;3.33;;;;;;;6.32;100.00;103601.31;10539603;28;20040;-61
2021/12/19 23:13:46;;;;;;;10.23;3.17;;;;;;;6.29;100.00;103596.13;10539298;28;20488;-62
2021/12/19 23:18:49;;;;;;;12.95;3.95;;;;;;;6.28;100.00;103582.22;10538234;28;20438;-61
2021/12/19 23:23:55;;;;;;;9.13;3.13;;;;;;;6.16;100.00;103583.91;10539227;28;20476;-61
2021/12/19 23:28:59;;;;;;;12.85;4.30;;;;;;;6.11;100.00;103563.06;10539139;28;20570;-61
2021/12/19 23:34:06;;;;;;;13.35;4.18;;;;;;;6.20;100.00;103570.91;10538935;28;20048;-60
2021/12/19 23:49:35;;;;;;;11.57;2.92;;;;;;;6.19;100.00;103557.91;10537926;28;20086;-61
2021/12/19 23:54:37;;;;;;;11.27;3.08;;;;;;;5.90;100.00;103551.63;10541719;28;20044;-61
2021/12/19 23:59:39;;;;;;;19.80;3.20;;;;;;;5.94;100.00;103545.56;10546869;28;20051;-62
